Bordeaux, Wyoming
Current Conditions -  °F | °C
As of 12:35 AM on Sunday 23 Nov 2014 (Local Time) from KGUR Reporting Station
Scattered Clouds Scattered Clouds  
Wind Chill: 39°   Ceiling: Unl
Heat Index: 42°   Visibility: 10mi
Dew Point: 34°   Wind: 6mph
Humidity: 71%   Direction: 310°NW
Pressure: 29.64"   Gusts: NA
Location:  42.0178°N, 105.098°W
Report Text: KGUR 230735Z AUTO 31005KT 10SM SCT090 06/01 A2964 RMK AO2 T00580010
Loading
Personal Weather Stations






























Interactive Weather Map New forecast layout! Learn more

10-Day Weather Forecast

Advertisements
Track Severe Weather on mobile